Time;durP1;ratioP1;P1;durP2;ratioP2;P2;SDS_P1;SDS_P2;PMS_P1;PMS_P2;Temp;Humidity;BMP_temperature;BMP_pressure;BME280_temperature;BME280_humidity;BME280_pressure;Samples;Min_cycle;Max_cycle;Signal;HPM_P1;HPM_P2
2023/10/11 00:00:33;;;;;;;9.48;4.25;;;16.90;99.90;;;;;;5096254;28;20381;-82
2023/10/11 00:05:53;;;;;;;;;;;16.90;99.90;;;;;;5097372;28;20177;-82
2023/10/11 00:08:19;;;;;;;11.13;4.18;;;16.90;99.90;;;;;;5096310;28;19904;-82
2023/10/11 00:10:53;;;;;;;9.80;4.15;;;16.90;99.90;;;;;;5095606;28;20388;-82
2023/10/11 00:13:24;;;;;;;11.65;3.75;;;16.80;99.90;;;;;;5097291;28;20017;-82
2023/10/11 00:15:52;;;;;;;10.77;4.10;;;16.80;99.90;;;;;;5096328;28;20066;-82
2023/10/11 00:18:24;;;;;;;8.98;4.18;;;16.80;99.90;;;;;;5095921;28;20051;-82
2023/10/11 00:20:51;;;;;;;10.20;3.83;;;16.80;99.90;;;;;;5096329;28;20101;-82
2023/10/11 00:23:24;;;;;;;7.07;3.20;;;16.70;99.90;;;;;;5096063;28;20024;-82
2023/10/11 00:25:52;;;;;;;9.63;3.88;;;16.70;99.90;;;;;;5096262;28;20091;-83
2023/10/11 00:28:23;;;;;;;13.18;4.35;;;16.70;99.90;;;;;;5096014;28;20039;-82
2023/10/11 00:30:50;;;;;;;11.50;4.10;;;16.70;99.90;;;;;;5095602;28;20028;-82
2023/10/11 00:33:16;;;;;;;12.35;4.53;;;16.60;99.90;;;;;;5095757;28;20032;-82
2023/10/11 00:35:49;;;;;;;11.98;4.47;;;16.60;99.90;;;;;;5095881;28;20081;-82
2023/10/11 00:38:27;;;;;;;10.30;4.20;;;16.60;99.90;;;;;;5095585;28;20032;-82
2023/10/11 00:41:07;;;;;;;10.93;3.85;;;16.60;99.90;;;;;;5094298;28;20028;-82
2023/10/11 00:43:38;;;;;;;10.20;4.10;;;16.60;99.90;;;;;;5095773;28;20074;-82
2023/10/11 00:46:08;;;;;;;12.07;4.07;;;16.60;99.90;;;;;;5095800;28;20032;-82
2023/10/11 00:48:53;;;;;;;8.30;4.17;;;16.60;99.90;;;;;;5095565;28;20032;-82
2023/10/11 00:51:39;;;;;;;14.15;4.28;;;16.60;99.90;;;;;;5095318;28;20074;-82
2023/10/11 00:54:05;;;;;;;13.73;3.92;;;16.60;99.90;;;;;;5095343;28;20473;-82
2023/10/11 00:56:31;;;;;;;14.00;4.55;;;16.60;99.90;;;;;;5096442;28;20032;-82
2023/10/11 00:58:58;;;;;;;12.90;4.47;;;16.60;99.90;;;;;;5094928;28;20039;-81
2023/10/11 01:01:24;;;;;;;14.50;4.43;;;16.60;99.90;;;;;;5096213;28;20028;-82
2023/10/11 01:03:52;;;;;;;11.57;4.15;;;16.60;99.90;;;;;;5095866;28;20052;-82
2023/10/11 01:06:18;;;;;;;10.65;4.40;;;16.60;99.90;;;;;;5096275;28;20020;-82
2023/10/11 01:08:48;;;;;;;13.63;4.05;;;16.60;99.90;;;;;;5095802;28;20119;-82
2023/10/11 01:11:14;;;;;;;17.77;4.63;;;16.60;99.90;;;;;;5096197;28;20460;-82
2023/10/11 01:13:42;;;;;;;12.00;4.43;;;16.60;99.90;;;;;;5094620;28;20024;-81
2023/10/11 01:16:14;;;;;;;16.48;4.32;;;16.60;99.90;;;;;;5095013;28;20123;-83
2023/10/11 01:18:41;;;;;;;10.63;4.05;;;16.60;99.90;;;;;;5094641;28;20032;-81
2023/10/11 01:21:07;;;;;;;12.68;4.55;;;16.60;99.90;;;;;;5094905;28;20028;-83
2023/10/11 01:23:34;;;;;;;9.52;4.28;;;16.50;99.90;;;;;;5096006;28;20150;-83
2023/10/11 01:26:09;;;;;;;13.32;4.50;;;16.50;99.90;;;;;;5094329;28;20605;-83
2023/10/11 01:28:40;;;;;;;15.48;4.25;;;16.50;99.90;;;;;;5095086;28;20024;-82
2023/10/11 01:31:09;;;;;;;;;;;16.50;99.90;;;;;;5095173;28;20024;-82
2023/10/11 01:33:43;;;;;;;9.48;3.67;;;16.50;99.90;;;;;;5095606;28;19926;-81
2023/10/11 01:36:23;;;;;;;14.13;4.35;;;16.50;99.90;;;;;;5094520;28;20051;-81
2023/10/11 01:38:48;;;;;;;13.63;4.75;;;16.50;99.90;;;;;;5093726;28;20036;-81
2023/10/11 01:41:16;;;;;;;13.13;4.22;;;16.40;99.90;;;;;;5095412;28;20031;-81
2023/10/11 01:43:45;;;;;;;14.43;4.50;;;16.40;99.90;;;;;;5093687;28;20032;-81
2023/10/11 01:46:17;;;;;;;10.32;3.88;;;16.40;99.90;;;;;;5093586;28;20028;-81
2023/10/11 01:48:46;;;;;;;15.90;5.03;;;16.30;99.90;;;;;;5093463;28;20085;-81
2023/10/11 01:51:20;;;;;;;12.88;4.25;;;16.30;99.90;;;;;;5093744;28;20033;-81
2023/10/11 01:53:46;;;;;;;13.73;4.50;;;16.20;99.90;;;;;;5092904;28;20057;-81
2023/10/11 01:56:13;;;;;;;11.02;4.72;;;16.30;99.90;;;;;;5094079;28;20020;-81
2023/10/11 01:58:42;;;;;;;15.15;4.40;;;16.20;99.90;;;;;;5094996;28;20362;-81
2023/10/11 02:01:21;;;;;;;14.75;4.05;;;16.20;99.90;;;;;;5094834;28;20024;-81
2023/10/11 02:03:53;;;;;;;11.48;4.40;;;16.20;99.90;;;;;;5094434;28;20061;-81
2023/10/11 02:06:20;;;;;;;12.80;4.47;;;16.20;99.90;;;;;;5094936;28;20030;-81
2023/10/11 02:08:45;;;;;;;17.85;4.40;;;16.10;99.90;;;;;;5092910;28;20081;-80
2023/10/11 02:11:14;;;;;;;9.80;4.10;;;16.10;99.90;;;;;;5093743;28;20032;-81
2023/10/11 02:13:43;;;;;;;12.82;4.45;;;16.10;99.90;;;;;;5094581;28;20028;-81
2023/10/11 02:16:11;;;;;;;13.25;4.15;;;16.00;99.90;;;;;;5093259;28;20106;-81
2023/10/11 02:18:39;;;;;;;13.27;4.07;;;16.10;99.90;;;;;;5094710;28;20043;-82
2023/10/11 02:21:06;;;;;;;10.00;4.00;;;16.00;99.90;;;;;;5094096;28;20020;-82
2023/10/11 02:23:39;;;;;;;15.52;4.57;;;16.00;99.90;;;;;;5093786;28;20456;-81
2023/10/11 02:26:12;;;;;;;14.85;4.45;;;16.00;99.90;;;;;;5093069;28;20020;-82
2023/10/11 02:28:39;;;;;;;8.13;4.32;;;15.90;99.90;;;;;;5093749;28;20150;-81
2023/10/11 02:31:05;;;;;;;11.15;3.95;;;15.90;99.90;;;;;;5093866;28;20012;-81
2023/10/11 02:33:33;;;;;;;16.25;4.70;;;15.90;99.90;;;;;;5094235;28;20048;-81
2023/10/11 02:36:08;;;;;;;13.27;4.68;;;15.90;99.90;;;;;;5092193;28;20079;-82
2023/10/11 02:38:47;;;;;;;11.20;3.72;;;15.80;99.90;;;;;;5094237;28;20043;-82
2023/10/11 02:41:20;;;;;;;13.45;4.38;;;15.90;99.90;;;;;;5093407;28;20488;-82
2023/10/11 02:43:49;;;;;;;11.45;4.05;;;15.80;99.90;;;;;;5093076;28;20021;-81
2023/10/11 02:46:23;;;;;;;11.35;4.35;;;15.80;99.90;;;;;;5093634;28;20043;-82
2023/10/11 02:49:04;;;;;;;15.73;4.20;;;15.80;99.90;;;;;;5092655;28;20465;-81
2023/10/11 02:51:32;;;;;;;10.93;3.88;;;15.80;99.90;;;;;;5094394;28;20020;-81
2023/10/11 02:53:59;;;;;;;11.23;4.32;;;15.80;99.90;;;;;;5093115;28;20488;-81
2023/10/11 02:56:24;;;;;;;12.77;4.18;;;15.80;99.90;;;;;;5094075;28;20085;-82
2023/10/11 02:58:50;;;;;;;12.13;4.50;;;15.70;99.90;;;;;;5093090;28;20032;-79
2023/10/11 03:01:20;;;;;;;10.00;4.25;;;15.70;99.90;;;;;;5092884;28;20032;-82
2023/10/11 03:03:47;;;;;;;12.63;4.70;;;15.70;99.90;;;;;;5092248;28;20028;-80
2023/10/11 03:06:13;;;;;;;12.60;4.05;;;15.70;99.90;;;;;;5093266;28;20035;-81
2023/10/11 03:08:40;;;;;;;11.05;4.35;;;15.60;99.90;;;;;;5092988;28;20028;-81
2023/10/11 03:11:08;;;;;;;9.52;3.92;;;15.60;99.90;;;;;;5093606;28;20016;-81
2023/10/11 03:13:41;;;;;;;10.25;4.40;;;15.60;99.90;;;;;;5092816;28;20035;-81
2023/10/11 03:16:13;;;;;;;10.73;4.43;;;15.60;99.90;;;;;;5092618;28;20045;-83
2023/10/11 03:18:40;;;;;;;9.18;4.10;;;15.60;99.90;;;;;;5093038;28;20480;-83
2023/10/11 03:21:20;;;;;;;8.73;4.18;;;15.50;99.90;;;;;;5091982;28;20148;-83
2023/10/11 03:23:47;;;;;;;11.65;4.45;;;15.40;99.90;;;;;;5092482;28;20028;-81
2023/10/11 03:26:31;;;;;;;14.05;4.28;;;15.40;99.90;;;;;;5092596;28;20024;-83
2023/10/11 03:29:04;;;;;;;12.20;4.47;;;15.40;99.90;;;;;;5092275;28;20028;-83
2023/10/11 03:31:31;;;;;;;10.80;4.45;;;15.40;99.90;;;;;;5093065;28;20031;-82
2023/10/11 03:34:22;;;;;;;15.23;4.63;;;15.30;99.90;;;;;;5093120;28;20020;-83
2023/10/11 03:36:51;;;;;;;11.65;4.20;;;15.30;99.90;;;;;;5092247;28;20033;-82
2023/10/11 03:42:07;;;;;;;13.25;3.97;;;15.20;99.90;;;;;;5093315;28;20028;-83
2023/10/11 03:44:36;;;;;;;;;;;15.20;99.90;;;;;;5093208;28;20086;-82
2023/10/11 03:47:07;;;;;;;11.30;4.15;;;15.20;99.90;;;;;;5092047;28;19916;-82
2023/10/11 03:49:49;;;;;;;10.63;4.22;;;15.20;99.90;;;;;;5093531;28;20035;-82
2023/10/11 03:52:20;;;;;;;12.10;4.25;;;15.30;99.90;;;;;;5092683;28;20032;-82
2023/10/11 03:55:10;;;;;;;11.43;4.45;;;15.30;99.90;;;;;;5092776;28;20052;-82
2023/10/11 03:57:41;;;;;;;13.32;4.43;;;15.30;99.90;;;;;;5092861;28;20028;-82
2023/10/11 04:02:56;;;;;;;10.32;4.03;;;15.30;99.90;;;;;;5093276;28;20453;-81
2023/10/11 04:05:22;;;;;;;10.60;4.25;;;15.20;99.90;;;;;;5092464;28;20032;-82
2023/10/11 04:07:48;;;;;;;11.35;4.25;;;15.20;99.90;;;;;;5093179;28;20031;-82
2023/10/11 04:10:20;;;;;;;9.10;4.60;;;15.10;99.90;;;;;;5091764;28;20072;-83
2023/10/11 04:12:46;;;;;;;9.60;4.40;;;15.20;99.90;;;;;;5092305;28;20024;-83
2023/10/11 04:15:24;;;;;;;13.95;4.90;;;15.10;99.90;;;;;;5093266;28;20024;-82
2023/10/11 04:17:50;;;;;;;13.38;4.47;;;15.10;99.90;;;;;;5096037;28;20032;-81
2023/10/11 04:20:21;;;;;;;13.18;4.28;;;15.10;99.90;;;;;;5097082;28;20449;-82
2023/10/11 04:23:01;;;;;;;10.73;3.67;;;15.20;99.90;;;;;;5097400;28;20074;-83
2023/10/11 04:25:27;;;;;;;10.10;3.90;;;15.10;99.90;;;;;;5097213;28;20024;-82
2023/10/11 04:27:57;;;;;;;14.25;4.30;;;15.10;99.90;;;;;;5096585;28;20020;-81
2023/10/11 04:30:41;;;;;;;9.07;4.28;;;15.10;99.90;;;;;;5095777;28;20027;-80
2023/10/11 04:33:11;;;;;;;10.13;4.35;;;15.10;99.90;;;;;;5095254;28;20385;-79
2023/10/11 04:35:36;;;;;;;8.93;3.88;;;15.10;99.90;;;;;;5095618;28;20139;-81
2023/10/11 04:38:03;;;;;;;11.18;4.75;;;15.10;99.90;;;;;;5095128;28;20055;-80
2023/10/11 04:43:17;;;;;;;12.38;4.47;;;15.00;99.90;;;;;;5095975;28;20429;-81
2023/10/11 04:45:46;;;;;;;13.65;4.60;;;15.00;99.90;;;;;;5096661;28;20094;-81
2023/10/11 04:48:14;;;;;;;14.88;4.65;;;15.00;99.90;;;;;;5094923;28;20059;-81
2023/10/11 04:50:47;;;;;;;9.85;3.70;;;15.00;99.90;;;;;;5096507;28;20051;-81
2023/10/11 04:53:17;;;;;;;12.13;4.35;;;15.00;99.90;;;;;;5094842;28;20055;-81
2023/10/11 04:55:47;;;;;;;11.63;4.63;;;15.00;99.90;;;;;;5094979;28;20114;-81
2023/10/11 04:58:21;;;;;;;9.52;3.90;;;15.00;99.90;;;;;;5095811;28;20483;-82
2023/10/11 05:00:48;;;;;;;12.02;4.65;;;14.90;99.90;;;;;;5095331;28;20098;-82
2023/10/11 05:03:17;;;;;;;14.43;3.72;;;14.90;99.90;;;;;;5094584;28;20024;-82
2023/10/11 05:05:58;;;;;;;11.77;4.18;;;14.90;99.90;;;;;;5095125;28;20061;-82
2023/10/11 05:08:50;;;;;;;14.25;3.95;;;14.90;99.90;;;;;;5095754;28;20088;-81
2023/10/11 05:11:19;;;;;;;10.98;4.13;;;14.90;99.90;;;;;;5095351;28;20024;-81
2023/10/11 05:13:59;;;;;;;14.00;4.00;;;14.90;99.90;;;;;;5095418;28;20102;-81
2023/10/11 05:16:25;;;;;;;14.27;4.13;;;14.90;99.90;;;;;;5096502;28;20173;-81
2023/10/11 05:18:50;;;;;;;10.20;4.10;;;14.90;99.90;;;;;;5094955;28;20122;-82
2023/10/11 05:21:18;;;;;;;11.00;4.10;;;14.90;99.90;;;;;;5094913;28;20032;-81
2023/10/11 05:26:47;;;;;;;9.75;4.18;;;14.90;99.90;;;;;;5075615;28;20036;-81
2023/10/11 05:29:24;;;;;;;9.93;4.00;;;15.00;99.90;;;;;;5093963;28;20525;-82
2023/10/11 05:50:59;;;;;;;12.23;3.88;;;14.80;99.90;;;;;;5095079;28;20062;-81
2023/10/11 05:53:25;;;;;;;10.45;3.65;;;14.80;99.90;;;;;;5094599;28;20036;-82
2023/10/11 05:55:51;;;;;;;10.15;3.75;;;14.80;99.90;;;;;;5095308;28;20024;-82
2023/10/11 05:58:19;;;;;;;8.70;3.78;;;14.80;99.90;;;;;;5093741;28;20024;-82
2023/10/11 06:00:49;;;;;;;14.20;4.95;;;14.80;99.90;;;;;;5094167;28;20028;-81
2023/10/11 06:03:16;;;;;;;11.95;3.80;;;14.80;99.90;;;;;;5094486;28;20173;-82
2023/10/11 06:05:41;;;;;;;15.43;4.22;;;14.80;99.90;;;;;;5093793;28;20051;-81
2023/10/11 06:08:15;;;;;;;10.70;4.15;;;14.70;99.90;;;;;;5092996;28;20373;-81
2023/10/11 06:10:44;;;;;;;8.43;4.40;;;14.70;99.90;;;;;;5093764;28;20520;-81
2023/10/11 06:13:13;;;;;;;12.07;4.13;;;14.80;99.90;;;;;;5093124;28;20381;-81
2023/10/11 06:15:58;;;;;;;11.93;4.03;;;14.80;99.90;;;;;;5093816;28;20028;-80
2023/10/11 06:18:55;;;;;;;11.18;3.72;;;14.70;99.90;;;;;;5093750;28;20063;-80
2023/10/11 06:21:56;;;;;;;13.10;4.18;;;14.80;99.90;;;;;;5092956;28;20024;-80
2023/10/11 06:24:07;;;;;;;11.70;5.00;;;14.70;99.90;;;;;;5089685;28;20028;-81
2023/10/11 06:29:07;;;;;;;8.35;3.92;;;14.70;99.90;;;;;;5093299;28;20591;-80
2023/10/11 06:31:39;;;;;;;11.50;4.15;;;14.80;99.90;;;;;;5092341;28;20063;-80
2023/10/11 06:34:23;;;;;;;10.73;4.47;;;14.70;99.90;;;;;;5086878;28;20044;-81
2023/10/11 06:36:50;;;;;;;10.65;4.88;;;14.70;99.90;;;;;;5103973;28;20503;-80
2023/10/11 06:44:59;;;;;;;10.93;4.10;;;14.80;99.90;;;;;;5093169;28;20035;-80
2023/10/11 06:47:35;;;;;;;11.57;3.95;;;14.80;99.90;;;;;;5109154;28;20043;-80
2023/10/11 06:50:11;;;;;;;13.35;3.95;;;14.80;99.90;;;;;;5099257;28;20122;-80
2023/10/11 06:52:43;;;;;;;10.82;3.75;;;14.80;99.90;;;;;;5100046;28;20028;-82
2023/10/11 06:57:45;;;;;;;11.60;3.60;;;14.80;99.90;;;;;;5097445;28;20024;-82
2023/10/11 07:00:20;;;;;;;10.77;4.60;;;14.90;99.90;;;;;;5102702;28;20385;-82
2023/10/11 07:02:47;;;;;;;15.98;4.00;;;14.90;99.90;;;;;;5104738;28;20357;-82
2023/10/11 07:05:17;;;;;;;9.65;3.60;;;14.90;99.90;;;;;;5095444;28;20110;-82
2023/10/11 07:07:53;;;;;;;12.23;4.05;;;14.90;99.90;;;;;;5107523;28;20028;-82
2023/10/11 07:10:29;;;;;;;13.10;3.83;;;14.90;99.90;;;;;;5100365;28;20035;-83
2023/10/11 07:13:05;;;;;;;11.13;4.57;;;14.90;99.90;;;;;;5086963;28;20024;-82
2023/10/11 07:15:41;;;;;;;14.85;3.88;;;14.90;99.90;;;;;;5089404;28;20038;-83
2023/10/11 07:18:24;;;;;;;11.18;3.83;;;15.00;99.90;;;;;;5088525;28;20036;-83
2023/10/11 07:23:56;;;;;;;13.02;3.67;;;15.00;99.90;;;;;;5090511;28;20035;-83
2023/10/11 07:29:02;;;;;;;10.60;3.42;;;15.20;99.90;;;;;;5095034;28;20028;-80
2023/10/11 07:31:32;;;;;;;11.73;4.18;;;15.10;99.90;;;;;;5092517;28;20525;-81
2023/10/11 07:34:06;;;;;;;8.57;3.53;;;15.20;99.90;;;;;;5091791;28;20479;-81
2023/10/11 07:36:32;;;;;;;10.93;4.07;;;15.20;99.90;;;;;;5088111;28;20028;-81
2023/10/11 07:39:10;;;;;;;14.75;4.50;;;15.20;99.90;;;;;;5095229;28;20497;-81
2023/10/11 07:41:42;;;;;;;11.85;3.83;;;15.30;99.90;;;;;;5091481;28;20028;-82
2023/10/11 07:44:11;;;;;;;13.68;4.18;;;15.30;99.90;;;;;;5089965;28;20135;-80
2023/10/11 07:46:38;;;;;;;12.27;3.50;;;15.40;99.90;;;;;;5089046;28;21264;-82
2023/10/11 07:49:04;;;;;;;8.02;3.63;;;15.50;99.90;;;;;;5088721;28;20099;-81
2023/10/11 07:51:35;;;;;;;10.38;3.58;;;15.50;99.90;;;;;;5088152;28;20110;-81
2023/10/11 07:54:06;;;;;;;10.43;4.10;;;15.60;99.90;;;;;;5094663;28;20047;-80
2023/10/11 07:56:35;;;;;;;8.23;3.17;;;15.60;99.90;;;;;;5090440;28;20040;-79
2023/10/11 07:59:12;;;;;;;8.98;3.85;;;15.70;99.90;;;;;;5095331;28;20524;-79
2023/10/11 08:01:44;;;;;;;14.90;4.03;;;15.70;99.90;;;;;;5094336;28;20482;-82
2023/10/11 08:04:17;;;;;;;10.20;3.70;;;15.70;99.90;;;;;;5096082;28;20099;-81
2023/10/11 08:06:44;;;;;;;11.88;3.35;;;15.80;99.90;;;;;;5096659;28;20035;-81
2023/10/11 08:09:18;;;;;;;9.73;3.42;;;15.90;99.90;;;;;;5097169;28;20056;-81
2023/10/11 08:11:56;;;;;;;12.15;3.58;;;15.90;99.90;;;;;;5098244;28;20106;-81
2023/10/11 08:14:28;;;;;;;9.90;3.83;;;16.00;99.90;;;;;;5112139;28;20035;-82
2023/10/11 08:16:57;;;;;;;14.48;3.83;;;16.00;99.90;;;;;;5100977;28;20170;-82
2023/10/11 08:19:25;;;;;;;9.85;3.15;;;16.10;99.90;;;;;;5101915;28;20024;-82
2023/10/11 08:21:57;;;;;;;10.93;3.70;;;16.10;99.90;;;;;;5101162;28;20031;-82
2023/10/11 08:24:27;;;;;;;15.68;3.85;;;16.20;99.90;;;;;;5103979;28;20024;-82
2023/10/11 08:27:08;;;;;;;7.45;3.45;;;16.20;99.90;;;;;;5096256;28;20041;-82
2023/10/11 08:29:35;;;;;;;12.98;3.50;;;16.30;99.90;;;;;;5106816;28;20024;-80
2023/10/11 08:32:06;;;;;;;10.07;3.78;;;16.40;99.90;;;;;;5095152;28;20047;-80
2023/10/11 08:34:32;;;;;;;11.25;3.58;;;16.40;99.90;;;;;;5108780;28;20069;-81
2023/10/11 08:36:58;;;;;;;12.63;3.42;;;16.50;99.90;;;;;;5101085;28;20032;-80
2023/10/11 08:39:36;;;;;;;11.70;3.30;;;16.50;99.90;;;;;;5104876;28;20036;-81
2023/10/11 08:42:30;;;;;;;8.05;3.45;;;16.60;99.90;;;;;;5102476;28;20062;-82
2023/10/11 08:45:00;;;;;;;9.45;3.30;;;16.70;99.90;;;;;;5099695;28;20035;-82
2023/10/11 08:47:29;;;;;;;11.23;3.38;;;16.80;99.90;;;;;;5111592;28;20039;-83
2023/10/11 08:49:55;;;;;;;15.25;3.40;;;16.90;99.90;;;;;;5092927;28;20028;-82
2023/10/11 08:52:28;;;;;;;10.13;3.00;;;16.90;99.90;;;;;;5093954;28;20059;-83
2023/10/11 08:54:53;;;;;;;12.43;3.30;;;17.00;99.90;;;;;;5094559;28;20024;-85
2023/10/11 08:57:23;;;;;;;10.13;2.92;;;17.00;99.90;;;;;;5110895;28;20035;-86
2023/10/11 08:59:50;;;;;;;8.73;3.08;;;17.10;99.90;;;;;;5096105;28;20132;-86
2023/10/11 09:02:17;;;;;;;12.15;3.20;;;17.20;99.90;;;;;;5094133;28;20039;-85
2023/10/11 09:05:07;;;;;;;9.52;2.75;;;17.30;99.90;;;;;;5094969;28;20067;-82
2023/10/11 09:07:46;;;;;;;8.55;2.90;;;17.30;99.90;;;;;;5105986;28;20023;-84
2023/10/11 09:10:26;;;;;;;12.35;3.13;;;17.40;99.90;;;;;;5114284;28;20126;-83
2023/10/11 09:12:56;;;;;;;6.28;2.70;;;17.60;99.90;;;;;;5115510;28;20432;-84
2023/10/11 09:15:42;;;;;;;11.45;2.92;;;17.70;99.90;;;;;;5112934;28;20028;-84
2023/10/11 09:18:12;;;;;;;8.98;3.17;;;17.80;99.90;;;;;;5104515;27;20047;-81
2023/10/11 09:20:41;;;;;;;9.45;2.90;;;17.80;99.90;;;;;;5094930;28;20389;-82
2023/10/11 09:23:08;;;;;;;10.90;3.10;;;17.90;99.90;;;;;;5095210;28;20020;-81
2023/10/11 09:26:02;;;;;;;10.73;2.70;;;18.00;99.90;;;;;;5090267;28;20067;-82
2023/10/11 09:28:33;;;;;;;11.02;3.00;;;18.10;99.90;;;;;;5103738;28;20028;-83
2023/10/11 09:31:26;;;;;;;6.93;2.88;;;18.10;99.90;;;;;;5094527;28;20077;-82
2023/10/11 09:33:59;;;;;;;8.43;2.53;;;18.30;99.90;;;;;;5092428;28;20032;-82
2023/10/11 09:36:28;;;;;;;19.98;3.60;;;18.30;99.90;;;;;;5092302;28;20027;-81
2023/10/11 09:38:57;;;;;;;13.30;2.72;;;18.40;99.90;;;;;;5090796;28;20472;-83
2023/10/11 09:41:28;;;;;;;9.43;2.72;;;18.50;99.90;;;;;;5112335;28;20086;-83
2023/10/11 09:43:57;;;;;;;8.15;3.05;;;18.50;99.90;;;;;;5099567;28;20066;-82
2023/10/11 09:46:29;;;;;;;10.75;2.78;;;18.60;99.90;;;;;;5093826;28;20135;-79
2023/10/11 09:49:02;;;;;;;10.73;3.00;;;18.70;99.90;;;;;;5093548;28;20040;-80
2023/10/11 09:51:29;;;;;;;10.55;2.92;;;18.80;99.90;;;;;;5094640;28;20065;-80
2023/10/11 09:54:01;;;;;;;12.38;3.42;;;18.90;99.60;;;;;;5093542;28;20035;-80
2023/10/11 09:56:50;;;;;;;11.23;2.88;;;19.00;99.40;;;;;;5107004;28;20499;-80
2023/10/11 10:00:00;;;;;;;10.10;2.67;;;19.10;99.40;;;;;;5113111;27;20023;-81
2023/10/11 10:02:34;;;;;;;10.77;3.28;;;19.20;99.30;;;;;;5051569;28;20045;-85
2023/10/11 10:05:05;;;;;;;8.02;3.00;;;19.30;99.40;;;;;;5050321;28;20025;-82
2023/10/11 10:07:42;;;;;;;7.60;2.40;;;19.30;99.30;;;;;;5086125;28;20495;-84
2023/10/11 10:10:15;;;;;;;12.10;2.63;;;19.40;99.00;;;;;;5094990;28;20473;-84
2023/10/11 10:12:43;;;;;;;9.73;2.53;;;19.60;98.60;;;;;;5106578;28;20032;-86
2023/10/11 10:15:23;;;;;;;10.10;2.97;;;19.60;98.40;;;;;;5096738;28;20071;-90
2023/10/11 10:18:00;;;;;;;9.43;2.22;;;19.70;98.40;;;;;;5079036;28;20385;-90
2023/10/11 10:20:34;;;;;;;8.40;2.50;;;19.80;98.20;;;;;;5084916;28;20027;-90
2023/10/11 10:23:15;;;;;;;11.18;2.97;;;19.90;98.20;;;;;;5111030;28;20031;-86
2023/10/11 10:25:46;;;;;;;9.90;2.63;;;20.00;98.00;;;;;;5093897;28;20491;-90
2023/10/11 10:28:34;;;;;;;9.43;2.20;;;20.10;97.80;;;;;;5101514;28;20093;-82
2023/10/11 10:31:23;;;;;;;12.88;2.63;;;20.30;97.30;;;;;;5099851;28;20438;-83
2023/10/11 10:34:04;;;;;;;9.07;2.97;;;20.40;97.10;;;;;;5085065;28;20024;-89
2023/10/11 10:36:31;;;;;;;9.10;2.38;;;20.40;97.20;;;;;;5083336;28;20081;-87
2023/10/11 10:39:00;;;;;;;7.35;2.20;;;20.50;96.80;;;;;;5081789;28;20032;-79
2023/10/11 10:41:26;;;;;;;10.45;2.85;;;20.60;96.70;;;;;;5084303;28;20147;-84
2023/10/11 10:44:10;;;;;;;9.73;2.40;;;20.70;96.50;;;;;;5083657;28;20085;-85
2023/10/11 10:46:54;;;;;;;10.35;2.55;;;20.80;96.00;;;;;;5081658;28;20028;-88
2023/10/11 10:49:23;;;;;;;8.68;2.22;;;20.80;96.20;;;;;;5094917;28;20064;-88
2023/10/11 10:51:48;;;;;;;9.40;3.38;;;21.00;95.70;;;;;;5092712;28;20378;-88
2023/10/11 10:54:17;;;;;;;8.95;2.55;;;21.00;95.60;;;;;;5093529;28;20103;-88
2023/10/11 10:56:47;;;;;;;7.78;2.65;;;21.10;95.60;;;;;;5093167;28;20027;-92
2023/10/11 10:59:14;;;;;;;10.60;2.30;;;21.20;95.20;;;;;;5092920;28;20468;-89
2023/10/11 11:01:44;;;;;;;10.85;2.88;;;21.20;95.00;;;;;;5094153;28;20032;-89
2023/10/11 11:04:14;;;;;;;12.00;2.53;;;21.40;95.00;;;;;;5092869;28;20028;-85
2023/10/11 11:06:50;;;;;;;11.70;2.13;;;21.40;95.00;;;;;;5092902;28;20540;-85
2023/10/11 11:09:27;;;;;;;7.90;2.78;;;21.50;95.00;;;;;;5092414;28;20465;-83
2023/10/11 11:11:55;;;;;;;7.53;2.20;;;21.50;94.80;;;;;;5092512;28;20097;-86
2023/10/11 11:14:23;;;;;;;7.88;2.50;;;21.60;94.70;;;;;;5092499;28;20017;-84
2023/10/11 11:16:56;;;;;;;11.30;2.97;;;21.70;94.70;;;;;;5091931;28;20118;-84
2023/10/11 11:19:34;;;;;;;9.32;2.45;;;21.70;94.90;;;;;;5093917;28;20102;-82
2023/10/11 11:22:11;;;;;;;8.88;2.70;;;21.80;94.90;;;;;;5113247;28;20036;-84
2023/10/11 11:24:41;;;;;;;8.35;3.13;;;21.90;94.90;;;;;;5097066;28;20024;-86
2023/10/11 11:27:25;;;;;;;16.90;3.05;;;21.90;95.10;;;;;;5091819;28;20035;-85
2023/10/11 11:29:52;;;;;;;7.60;2.60;;;21.90;95.20;;;;;;5093708;28;20477;-84
2023/10/11 11:32:19;;;;;;;9.30;2.58;;;21.90;95.20;;;;;;5093297;28;20534;-85
2023/10/11 11:35:09;;;;;;;11.30;2.92;;;22.00;95.10;;;;;;5105042;28;20052;-86
2023/10/11 11:37:39;;;;;;;7.47;2.72;;;22.10;95.10;;;;;;5092685;28;20118;-87
2023/10/11 11:42:50;;;;;;;10.18;2.42;;;22.10;95.40;;;;;;5092923;28;20039;-85
2023/10/11 11:45:16;;;;;;;10.98;2.97;;;22.20;95.00;;;;;;5081895;28;20116;-86
2023/10/11 11:47:57;;;;;;;5.40;2.13;;;22.30;95.00;;;;;;5092562;28;20471;-87
2023/10/11 11:50:33;;;;;;;10.35;2.63;;;22.40;94.90;;;;;;5092125;28;20038;-88
2023/10/11 11:53:00;;;;;;;11.00;2.55;;;22.50;94.80;;;;;;5092018;28;20025;-84
2023/10/11 11:55:26;;;;;;;9.95;2.95;;;22.70;94.70;;;;;;5092213;28;20024;-84
2023/10/11 11:57:53;;;;;;;8.77;2.42;;;22.80;94.50;;;;;;5093130;28;20032;-84
2023/10/11 12:02:47;;;;;;;7.97;2.38;;;23.10;93.90;;;;;;5093097;28;20450;-88
2023/10/11 12:05:13;;;;;;;9.13;2.72;;;23.20;93.70;;;;;;5091660;28;20024;-89
2023/10/11 12:07:38;;;;;;;6.25;2.38;;;23.40;93.50;;;;;;5084034;28;20094;-87
2023/10/11 12:10:25;;;;;;;8.10;2.80;;;23.60;93.20;;;;;;5086967;28;20035;-88
2023/10/11 12:12:52;;;;;;;7.28;2.10;;;23.70;92.90;;;;;;5084574;28;20115;-85
2023/10/11 12:15:19;;;;;;;6.47;2.22;;;24.00;92.40;;;;;;5080466;28;20032;-83
2023/10/11 12:17:53;;;;;;;10.32;2.63;;;24.20;91.80;;;;;;5085930;28;20388;-82
2023/10/11 12:20:21;;;;;;;7.85;2.55;;;24.40;91.50;;;;;;5082272;28;20035;-81
2023/10/11 12:22:48;;;;;;;10.00;2.80;;;24.50;91.10;;;;;;5102632;28;20039;-80
2023/10/11 12:25:14;;;;;;;12.40;2.53;;;24.70;90.90;;;;;;5106984;28;20048;-82
2023/10/11 12:27:43;;;;;;;13.48;2.67;;;24.70;90.70;;;;;;5096651;28;20086;-82
2023/10/11 12:30:19;;;;;;;7.53;2.53;;;24.90;90.80;;;;;;5103051;28;20095;-82
2023/10/11 12:32:45;;;;;;;8.82;2.53;;;25.20;90.40;;;;;;5105562;28;20024;-82
2023/10/11 12:35:11;;;;;;;8.23;2.53;;;25.30;89.80;;;;;;5094324;28;20044;-80
2023/10/11 12:37:36;;;;;;;9.65;2.35;;;25.50;88.90;;;;;;5109698;28;20437;-82
2023/10/11 12:40:11;;;;;;;6.15;2.58;;;25.70;88.50;;;;;;5099056;28;20429;-81
2023/10/11 12:42:37;;;;;;;8.95;2.25;;;26.10;87.60;;;;;;5084058;28;20378;-82
2023/10/11 12:45:07;;;;;;;12.55;2.42;;;26.40;86.40;;;;;;5091509;28;20031;-81
2023/10/11 12:47:36;;;;;;;11.50;2.53;;;26.90;85.10;;;;;;5096831;28;20180;-83
2023/10/11 12:50:03;;;;;;;11.38;2.50;;;27.40;83.60;;;;;;5102807;28;20476;-80
2023/10/11 12:52:30;;;;;;;8.40;2.58;;;27.90;82.60;;;;;;5114963;28;20028;-84
2023/10/11 12:55:02;;;;;;;5.78;2.75;;;28.30;81.50;;;;;;5097989;28;20117;-84
2023/10/11 12:57:28;;;;;;;;;;;28.70;80.10;;;;;;5091798;28;20122;-82
2023/10/11 12:59:53;;;;;;;13.38;2.60;;;28.90;78.20;;;;;;5091904;28;20017;-82
2023/10/11 13:02:21;;;;;;;12.65;2.95;;;29.20;77.70;;;;;;5092403;28;20468;-82
2023/10/11 13:04:48;;;;;;;10.05;2.60;;;29.60;76.80;;;;;;5088756;28;20085;-78
2023/10/11 13:07:13;;;;;;;10.35;2.58;;;30.00;74.80;;;;;;5103521;28;20111;-90
2023/10/11 13:09:40;;;;;;;13.38;2.80;;;30.40;73.30;;;;;;5101461;28;20134;-85
2023/10/11 13:12:06;;;;;;;7.65;2.47;;;30.60;72.10;;;;;;5097099;28;20019;-88
2023/10/11 13:14:33;;;;;;;9.65;2.42;;;30.80;71.30;;;;;;5103596;28;20036;-84
2023/10/11 13:17:00;;;;;;;11.45;2.47;;;31.10;70.40;;;;;;5105424;28;20032;-79
2023/10/11 13:19:26;;;;;;;7.70;2.47;;;31.40;69.30;;;;;;5112008;28;20035;-83
2023/10/11 13:21:54;;;;;;;9.63;2.38;;;31.60;68.30;;;;;;5100378;28;20077;-81
2023/10/11 13:24:26;;;;;;;10.40;2.70;;;31.70;67.10;;;;;;5104906;28;20020;-82
2023/10/11 13:26:57;;;;;;;14.50;2.72;;;32.10;66.40;;;;;;5103325;28;20063;-84
2023/10/11 13:29:23;;;;;;;9.57;3.00;;;32.60;65.10;;;;;;5095835;28;20536;-84
2023/10/11 13:31:54;;;;;;;7.72;2.45;;;32.90;63.80;;;;;;5097210;28;20130;-83
2023/10/11 13:34:23;;;;;;;7.25;2.63;;;32.70;63.80;;;;;;5095748;28;20044;-83
2023/10/11 13:36:49;;;;;;;6.78;2.40;;;32.60;63.10;;;;;;5094156;28;20047;-83
2023/10/11 13:39:27;;;;;;;8.35;2.17;;;32.60;62.40;;;;;;5098362;28;20461;-84
2023/10/11 13:41:56;;;;;;;8.52;2.80;;;32.50;62.20;;;;;;5090273;28;20078;-84
2023/10/11 13:44:23;;;;;;;9.82;2.90;;;32.50;62.50;;;;;;5095167;28;20036;-84
2023/10/11 13:46:55;;;;;;;8.00;2.40;;;32.60;62.30;;;;;;5100014;28;20032;-85
2023/10/11 13:49:25;;;;;;;9.90;2.70;;;32.70;62.10;;;;;;5096493;28;20487;-84
2023/10/11 13:51:51;;;;;;;5.45;1.80;;;32.70;61.20;;;;;;5101784;28;20065;-82
2023/10/11 13:54:31;;;;;;;11.77;2.30;;;32.30;62.30;;;;;;5109513;28;20130;-81
2023/10/11 13:57:10;;;;;;;9.33;2.40;;;31.80;63.20;;;;;;5119036;28;20055;-81